Airfield :
LOGIN :

Register | Disclaimer

   EN    FR    IT 

 










Legend :    VFR   Marginal VFR   IFR   Intensive IFR   Very Intensive IFR
Visi :
Ceiling :
>= 8 km
>= 3000ft
5 to 8 km
1000 to 3000 ft
1500m to 5 km
500 to 1000 ft
800 to 1500m
200 to 500 ft
< 800m
< 200 ft
Symbols :   Thunderstorms  Fog  Heavy snow  Heavy precipitations  Wind > 20 kt
SIGMETs :     Misc.  Thunderstorms  Icing  Turbulence  Mountain Waves  Volcanic Ashes






- Airport Elevation : 11 ft
- IATA code : MJV


LELC - Murcia San Javier

CURRENT METAR :
  • 241300Z 31020KT 280V340 CAVOK 19/M01 Q1013 NOSIG

EXPIRED METARs :
  • 241230Z 31021G33KT 270V340 CAVOK 20/M01 Q1013 NOSIG
  • 241200Z 30023G34KT 270V340 CAVOK 19/M01 Q1013 NOSIG
  • 241130Z 31021G31KT 260V330 CAVOK 19/M00 Q1012 NOSIG
  • 241100Z 28017G27KT 250V310 CAVOK 18/01 Q1012 NOSIG
  • 241030Z 28018G28KT 250V310 CAVOK 18/01 Q1013 NOSIG
  • 241000Z 27015G25KT 230V300 CAVOK 18/01 Q1013 NOSIG
  • 240930Z 25009KT 210V290 CAVOK 17/03 Q1013 NOSIG
  • 240900Z 25011KT CAVOK 16/03 Q1013 NOSIG
  • 240830Z 25011KT CAVOK 14/04 Q1013 NOSIG

TAF TAF LELC
Valid from the 24 at 12:00 until the 25 at 12:00 UTC


241100Z 2412/2512 30018KT CAVOK TX19/2414Z TN09/2507Z
TEMPO 2412/2418 32020G32KT
BECMG 2418/2420 26005KT
BECMG 2510/2512 27016KT



MET'MAP, your aeronautical weather chart ! - Copyright ORBIFLY December 2007 - Disclaimer

ORBIFLY MET'MAP TEAM :

Programming & Development : Alexandra Zaïnal
Original concept : Baudouin d'Aumeries
Technical & hardware support : Manuel Goepfert
Assistance : Marc-Olivier Méhu




SOURCES & CREDITS :

   NOAA